Time,TemperatureF,DewpointF,PressureIn,WindDirection,WindDirectionDegrees,WindSpeedMPH,WindSpeedGustMPH,Humidity,HourlyPrecipIn,Conditions,Clouds,dailyrainin,SoftwareType,DateUTC
2014-07-13 00:00:00,73.8,48.1,30.16,ESE,113,0.0,0.0,40,0.00,,,0.00,WUHU216HW,2014-07-13 07:00:00,
2014-07-13 00:05:00,73.8,48.1,30.16,ESE,113,0.0,0.0,40,0.00,,,0.00,WUHU216HW,2014-07-13 07:05:00,
2014-07-13 00:30:00,73.6,47.9,30.15,ESE,113,0.0,0.0,40,0.00,,,0.00,WUHU216HW,2014-07-13 07:30:00,
2014-07-13 00:35:00,73.6,47.9,30.15,ESE,113,0.0,0.0,40,0.00,,,0.00,WUHU216HW,2014-07-13 07:35:00,
2014-07-13 01:00:00,72.9,47.8,30.15,ESE,113,0.0,0.0,41,0.00,,,0.00,WUHU216HW,2014-07-13 08:00:00,
2014-07-13 01:05:00,72.9,47.8,30.15,ESE,113,0.0,0.0,41,0.00,,,0.00,WUHU216HW,2014-07-13 08:05:00,
2014-07-13 01:30:00,72.2,48.3,30.14,ESE,113,0.0,0.0,43,0.00,,,0.00,WUHU216HW,2014-07-13 08:30:00,
2014-07-13 01:35:00,72.2,48.3,30.14,ESE,113,0.0,0.0,43,0.00,,,0.00,WUHU216HW,2014-07-13 08:35:00,
2014-07-13 02:00:00,71.6,48.4,30.14,ESE,113,0.0,0.0,44,0.00,,,0.00,WUHU216HW,2014-07-13 09:00:00,
2014-07-13 02:05:00,71.6,48.4,30.14,ESE,113,0.0,0.0,44,0.00,,,0.00,WUHU216HW,2014-07-13 09:05:00,
2014-07-13 02:30:00,71.3,48.2,30.14,ESE,113,0.0,0.0,44,0.00,,,0.00,WUHU216HW,2014-07-13 09:30:00,
2014-07-13 02:35:00,71.3,48.2,30.14,ESE,113,0.0,0.0,44,0.00,,,0.00,WUHU216HW,2014-07-13 09:35:00,
2014-07-13 03:00:00,71.3,48.7,30.14,ESE,113,0.0,0.0,45,0.00,,,0.00,WUHU216HW,2014-07-13 10:00:00,
2014-07-13 03:05:00,71.3,48.7,30.14,ESE,113,0.0,0.0,45,0.00,,,0.00,WUHU216HW,2014-07-13 10:05:00,
2014-07-13 03:30:00,71.3,49.3,30.14,ESE,113,0.0,0.0,46,0.00,,,0.00,WUHU216HW,2014-07-13 10:30:00,
2014-07-13 03:35:00,71.3,49.3,30.14,ESE,113,0.0,0.0,46,0.00,,,0.00,WUHU216HW,2014-07-13 10:35:00,
2014-07-13 04:00:00,71.1,49.1,30.14,ESE,113,0.0,0.0,46,0.00,,,0.00,WUHU216HW,2014-07-13 11:00:00,
2014-07-13 04:05:00,71.1,49.8,30.14,ESE,113,0.0,0.0,47,0.00,,,0.00,WUHU216HW,2014-07-13 11:05:00,
2014-07-13 04:10:00,71.1,49.8,30.14,ESE,113,0.0,0.0,47,0.00,,,0.00,WUHU216HW,2014-07-13 11:10:00,
2014-07-13 04:30:00,70.7,49.4,30.14,ESE,113,0.0,0.0,47,0.00,,,0.00,WUHU216HW,2014-07-13 11:30:00,
2014-07-13 04:35:00,70.7,49.4,30.14,ESE,113,0.0,0.0,47,0.00,,,0.00,WUHU216HW,2014-07-13 11:35:00,
2014-07-13 05:00:00,70.4,49.7,30.14,ESE,113,0.0,0.0,48,0.00,,,0.00,WUHU216HW,2014-07-13 12:00:00,
2014-07-13 05:05:00,70.4,49.7,30.14,ESE,113,0.0,0.0,48,0.00,,,0.00,WUHU216HW,2014-07-13 12:05:00,
2014-07-13 05:30:00,70.2,49.5,30.15,ESE,113,0.0,0.0,48,0.00,,,0.00,WUHU216HW,2014-07-13 12:30:00,
2014-07-13 05:35:00,70.2,49.5,30.15,ESE,113,0.0,0.0,48,0.00,,,0.00,WUHU216HW,2014-07-13 12:35:00,
2014-07-13 06:00:00,69.7,49.7,30.15,ESE,113,0.0,0.0,49,0.00,,,0.00,WUHU216HW,2014-07-13 13:00:00,
2014-07-13 06:05:00,69.7,49.7,30.15,ESE,113,0.0,0.0,49,0.00,,,0.00,WUHU216HW,2014-07-13 13:05:00,
2014-07-13 06:10:00,69.7,49.7,30.15,ESE,113,0.0,0.0,49,0.00,,,0.00,WUHU216HW,2014-07-13 13:10:00,
2014-07-13 06:30:00,70.7,50.6,30.15,ESE,113,0.0,0.0,49,0.00,,,0.00,WUHU216HW,2014-07-13 13:30:00,
2014-07-13 06:35:00,70.7,50.6,30.15,ESE,113,0.0,0.0,49,0.00,,,0.00,WUHU216HW,2014-07-13 13:35:00,
2014-07-13 07:00:00,74.7,52.5,30.15,ESE,113,0.0,0.0,46,0.00,,,0.00,WUHU216HW,2014-07-13 14:00:00,
2014-07-13 07:05:00,74.7,53.1,30.15,ESE,113,0.0,0.0,47,0.00,,,0.00,WUHU216HW,2014-07-13 14:05:00,
2014-07-13 07:10:00,74.7,53.1,30.15,ESE,113,0.0,0.0,47,0.00,,,0.00,WUHU216HW,2014-07-13 14:10:00,
2014-07-13 07:30:00,81.4,55.4,30.15,ESE,113,0.0,0.0,41,0.00,,,0.00,WUHU216HW,2014-07-13 14:30:00,
2014-07-13 07:35:00,81.4,55.4,30.15,ESE,113,0.0,0.0,41,0.00,,,0.00,WUHU216HW,2014-07-13 14:35:00,
2014-07-13 08:00:00,83.9,56.4,30.15,ESE,113,0.0,0.0,39,0.00,,,0.00,WUHU216HW,2014-07-13 15:00:00,
2014-07-13 08:05:00,83.9,56.4,30.15,ESE,113,0.0,0.0,39,0.00,,,0.00,WUHU216HW,2014-07-13 15:05:00,
2014-07-13 08:30:00,86.0,57.4,30.15,ESE,113,0.0,0.0,38,0.00,,,0.00,WUHU216HW,2014-07-13 15:30:00,
2014-07-13 08:35:00,86.0,57.4,30.15,ESE,113,0.0,0.0,38,0.00,,,0.00,WUHU216HW,2014-07-13 15:35:00,
2014-07-13 09:00:00,88.7,58.1,30.15,ESE,113,0.0,0.0,36,0.00,,,0.00,WUHU216HW,2014-07-13 16:00:00,
2014-07-13 09:05:00,88.7,58.1,30.15,ESE,113,0.0,0.0,36,0.00,,,0.00,WUHU216HW,2014-07-13 16:05:00,
2014-07-13 09:30:00,90.7,60.0,30.15,ESE,113,0.0,0.0,36,0.00,,,0.00,WUHU216HW,2014-07-13 16:30:00,
2014-07-13 09:35:00,90.7,60.0,30.15,ESE,113,0.0,0.0,36,0.00,,,0.00,WUHU216HW,2014-07-13 16:35:00,
2014-07-13 10:00:00,90.7,57.5,30.15,ESE,113,0.0,0.0,33,0.00,,,0.00,WUHU216HW,2014-07-13 17:00:00,
2014-07-13 10:05:00,90.7,57.5,30.15,ESE,113,0.0,0.0,33,0.00,,,0.00,WUHU216HW,2014-07-13 17:05:00,
2014-07-13 10:10:00,90.7,57.5,30.15,ESE,113,0.0,0.0,33,0.00,,,0.00,WUHU216HW,2014-07-13 17:10:00,
2014-07-13 10:30:00,93.2,58.9,30.14,ESE,113,0.0,0.0,32,0.00,,,0.00,WUHU216HW,2014-07-13 17:30:00,
2014-07-13 10:35:00,93.2,58.9,30.14,ESE,113,0.0,0.0,32,0.00,,,0.00,WUHU216HW,2014-07-13 17:35:00,
2014-07-13 11:00:00,93.8,59.3,30.15,ESE,113,0.0,0.0,32,0.00,,,0.00,WUHU216HW,2014-07-13 18:00:00,
2014-07-13 11:05:00,93.8,59.3,30.15,ESE,113,0.0,0.0,32,0.00,,,0.00,WUHU216HW,2014-07-13 18:05:00,